This is the latest recevied weather packets stored in our database for station/object PTG2-WX. If no packets are shown the sender has not sent any weather packets the latest 10 day(s).
| Time | Temp. | Humidity | Pressure | Rain* | Wind** | Luminosity | Snow |
|---|---|---|---|---|---|---|---|
| 1788427034 | 26.67° C | 44% | 1014.9 hPa | - | - | - | - |
| 1788423434 | 26.11° C | 47% | 1015.7 hPa | - | - | - | - |
| 1788419834 | 24.44° C | 52% | 1016.7 hPa | - | - | - | - |
| 1788412633 | 20.56° C | 70% | 1017.6 hPa | - | - | - | - |
| 1788409038 | 17.22° C | 83% | 1018 hPa | - | - | - | - |
| 1788405434 | 13.89° C | 94% | 1018.3 hPa | - | - | - | - |
| 1788401833 | 13.33° C | 95% | 1018.2 hPa | - | - | - | - |
| 1788398234 | 13.33° C | 95% | 1018.2 hPa | - | - | - | - |
| 1788380233 | 17.78° C | 75% | 1017.8 hPa | - | - | - | - |
| 1788376781 | 18.89° C | 70% | 1017.9 hPa | - | - | - | - |
| 1788369434 | 20.56° C | 63% | 1018 hPa | - | - | - | - |
| 1788365834 | 22.22° C | 59% | 1017.3 hPa | - | - | - | - |
| 1788362294 | 23.89° C | 50% | 1016.6 hPa | - | - | - | - |
| 1788358635 | 25.56° C | 43% | 1016.4 hPa | - | - | - | - |
| 1788355035 | 26.67° C | 39% | 1016.4 hPa | - | - | - | - |
| 1788351507 | 27.22° C | 40% | 1016.5 hPa | - | - | - | - |
| 1788347834 | 27.22° C | 40% | 1016.3 hPa | - | - | - | - |
| 1788344234 | 26.67° C | 42% | 1016.8 hPa | - | - | - | - |
| 1788340633 | 25.56° C | 46% | 1017.2 hPa | - | - | - | - |
| 1788337034 | 24.44° C | 50% | 1017.6 hPa | - | - | - | - |
| 1788333435 | 22.78° C | 57% | 1018 hPa | - | - | - | - |
| 1788329834 | 21.11° C | 63% | 1018.9 hPa | - | - | - | - |
| 1788326234 | 19.44° C | 71% | 1018.8 hPa | - | - | - | - |
| 1788322634 | 16.11° C | 83% | 1018.9 hPa | - | - | - | - |
| 1788319048 | 13.89° C | 90% | 1018.6 hPa | - | - | - | - |
* Rain since midnight (hover to see other rain measurements)
** Current wind speed in m/s (hover to see current wind gust speed)